sensor_id;sensor_type;location;lat;lon;timestamp;P1;durP1;ratioP1;P2;durP2;ratioP2
13303;SDS011;6720;51.958;4.540;2022-12-20T00:02:01;6.20;;;4.80;;
13303;SDS011;6720;51.958;4.540;2022-12-20T00:04:27;5.07;;;4.57;;
13303;SDS011;6720;51.958;4.540;2022-12-20T00:06:52;6.00;;;4.40;;
13303;SDS011;6720;51.958;4.540;2022-12-20T00:09:18;5.97;;;4.00;;
13303;SDS011;6720;51.958;4.540;2022-12-20T00:11:43;5.50;;;4.20;;
13303;SDS011;6720;51.958;4.540;2022-12-20T00:14:08;7.53;;;4.40;;
13303;SDS011;6720;51.958;4.540;2022-12-20T00:16:35;5.30;;;4.37;;
13303;SDS011;6720;51.958;4.540;2022-12-20T00:19:02;5.93;;;4.63;;
13303;SDS011;6720;51.958;4.540;2022-12-20T00:21:29;8.27;;;4.10;;
13303;SDS011;6720;51.958;4.540;2022-12-20T00:23:56;6.00;;;4.27;;
13303;SDS011;6720;51.958;4.540;2022-12-20T00:26:23;6.37;;;4.20;;
13303;SDS011;6720;51.958;4.540;2022-12-20T00:28:51;5.33;;;4.07;;
13303;SDS011;6720;51.958;4.540;2022-12-20T00:31:17;5.77;;;4.30;;
13303;SDS011;6720;51.958;4.540;2022-12-20T00:33:44;6.47;;;4.20;;
13303;SDS011;6720;51.958;4.540;2022-12-20T00:36:12;6.27;;;4.47;;
13303;SDS011;6720;51.958;4.540;2022-12-20T00:38:38;6.83;;;4.60;;
13303;SDS011;6720;51.958;4.540;2022-12-20T00:41:04;5.10;;;4.53;;
13303;SDS011;6720;51.958;4.540;2022-12-20T00:43:31;6.03;;;4.63;;
13303;SDS011;6720;51.958;4.540;2022-12-20T00:45:57;5.03;;;4.53;;
13303;SDS011;6720;51.958;4.540;2022-12-20T00:48:23;5.93;;;4.70;;
13303;SDS011;6720;51.958;4.540;2022-12-20T00:50:49;4.87;;;4.40;;
13303;SDS011;6720;51.958;4.540;2022-12-20T00:53:14;5.50;;;4.60;;
13303;SDS011;6720;51.958;4.540;2022-12-20T00:55:40;6.93;;;5.00;;
13303;SDS011;6720;51.958;4.540;2022-12-20T00:58:06;7.57;;;4.63;;
13303;SDS011;6720;51.958;4.540;2022-12-20T01:00:32;5.60;;;4.70;;
13303;SDS011;6720;51.958;4.540;2022-12-20T01:02:58;4.80;;;3.80;;
13303;SDS011;6720;51.958;4.540;2022-12-20T01:05:23;6.10;;;4.90;;
13303;SDS011;6720;51.958;4.540;2022-12-20T01:07:48;7.33;;;5.17;;
13303;SDS011;6720;51.958;4.540;2022-12-20T01:10:14;5.60;;;4.53;;
13303;SDS011;6720;51.958;4.540;2022-12-20T01:12:39;7.30;;;4.97;;
13303;SDS011;6720;51.958;4.540;2022-12-20T01:15:06;6.63;;;5.00;;
13303;SDS011;6720;51.958;4.540;2022-12-20T01:17:32;7.53;;;5.10;;
13303;SDS011;6720;51.958;4.540;2022-12-20T01:19:58;6.17;;;5.33;;
13303;SDS011;6720;51.958;4.540;2022-12-20T01:22:35;5.60;;;4.93;;
13303;SDS011;6720;51.958;4.540;2022-12-20T01:25:19;8.33;;;5.70;;
13303;SDS011;6720;51.958;4.540;2022-12-20T01:27:45;9.07;;;5.60;;
13303;SDS011;6720;51.958;4.540;2022-12-20T01:30:10;8.53;;;5.67;;
13303;SDS011;6720;51.958;4.540;2022-12-20T01:32:36;7.87;;;6.30;;
13303;SDS011;6720;51.958;4.540;2022-12-20T01:35:12;8.13;;;6.40;;
13303;SDS011;6720;51.958;4.540;2022-12-20T01:37:42;6.83;;;5.70;;
13303;SDS011;6720;51.958;4.540;2022-12-20T01:40:08;7.70;;;5.77;;
13303;SDS011;6720;51.958;4.540;2022-12-20T01:42:34;7.73;;;5.77;;
13303;SDS011;6720;51.958;4.540;2022-12-20T01:45:00;8.43;;;5.47;;
13303;SDS011;6720;51.958;4.540;2022-12-20T01:47:28;8.33;;;6.07;;
13303;SDS011;6720;51.958;4.540;2022-12-20T01:49:56;5.93;;;5.43;;
13303;SDS011;6720;51.958;4.540;2022-12-20T01:52:27;6.93;;;5.03;;
13303;SDS011;6720;51.958;4.540;2022-12-20T01:55:07;7.60;;;5.00;;
13303;SDS011;6720;51.958;4.540;2022-12-20T01:58:17;6.97;;;5.90;;
13303;SDS011;6720;51.958;4.540;2022-12-20T02:00:25;6.00;;;5.00;;
13303;SDS011;6720;51.958;4.540;2022-12-20T02:02:51;7.97;;;5.40;;
13303;SDS011;6720;51.958;4.540;2022-12-20T02:05:18;6.23;;;5.50;;
13303;SDS011;6720;51.958;4.540;2022-12-20T02:07:46;7.90;;;5.77;;
13303;SDS011;6720;51.958;4.540;2022-12-20T02:10:14;7.53;;;5.30;;
13303;SDS011;6720;51.958;4.540;2022-12-20T02:12:42;6.00;;;5.40;;
13303;SDS011;6720;51.958;4.540;2022-12-20T02:20:46;9.23;;;5.27;;
13303;SDS011;6720;51.958;4.540;2022-12-20T02:23:31;7.03;;;5.57;;
13303;SDS011;6720;51.958;4.540;2022-12-20T02:34:37;6.37;;;5.07;;
13303;SDS011;6720;51.958;4.540;2022-12-20T02:37:05;6.57;;;5.57;;
13303;SDS011;6720;51.958;4.540;2022-12-20T02:39:30;7.27;;;5.03;;
13303;SDS011;6720;51.958;4.540;2022-12-20T02:42:08;6.00;;;5.10;;
13303;SDS011;6720;51.958;4.540;2022-12-20T02:44:36;7.57;;;5.80;;
13303;SDS011;6720;51.958;4.540;2022-12-20T02:47:29;6.33;;;5.20;;
13303;SDS011;6720;51.958;4.540;2022-12-20T02:50:03;5.73;;;5.17;;
13303;SDS011;6720;51.958;4.540;2022-12-20T02:52:31;6.67;;;5.40;;
13303;SDS011;6720;51.958;4.540;2022-12-20T02:54:57;5.70;;;5.20;;
13303;SDS011;6720;51.958;4.540;2022-12-20T02:57:25;5.97;;;5.00;;
13303;SDS011;6720;51.958;4.540;2022-12-20T03:02:27;6.17;;;4.97;;
13303;SDS011;6720;51.958;4.540;2022-12-20T03:05:14;7.67;;;4.83;;
13303;SDS011;6720;51.958;4.540;2022-12-20T03:07:40;5.97;;;4.80;;
13303;SDS011;6720;51.958;4.540;2022-12-20T03:10:05;7.50;;;5.10;;
13303;SDS011;6720;51.958;4.540;2022-12-20T03:12:31;5.87;;;5.20;;
13303;SDS011;6720;51.958;4.540;2022-12-20T03:14:56;5.87;;;5.20;;
13303;SDS011;6720;51.958;4.540;2022-12-20T03:17:22;6.20;;;4.90;;
13303;SDS011;6720;51.958;4.540;2022-12-20T03:19:47;5.83;;;5.13;;
13303;SDS011;6720;51.958;4.540;2022-12-20T03:22:13;5.60;;;4.53;;
13303;SDS011;6720;51.958;4.540;2022-12-20T03:24:38;5.20;;;4.70;;
13303;SDS011;6720;51.958;4.540;2022-12-20T03:27:03;6.93;;;5.20;;
13303;SDS011;6720;51.958;4.540;2022-12-20T03:29:29;6.27;;;5.07;;
13303;SDS011;6720;51.958;4.540;2022-12-20T03:31:54;5.43;;;4.77;;
13303;SDS011;6720;51.958;4.540;2022-12-20T03:34:19;6.30;;;5.00;;
13303;SDS011;6720;51.958;4.540;2022-12-20T03:36:45;5.43;;;4.93;;
13303;SDS011;6720;51.958;4.540;2022-12-20T03:39:10;5.80;;;4.73;;
13303;SDS011;6720;51.958;4.540;2022-12-20T03:41:36;7.50;;;5.13;;
13303;SDS011;6720;51.958;4.540;2022-12-20T03:44:01;7.97;;;4.67;;
13303;SDS011;6720;51.958;4.540;2022-12-20T03:46:26;6.27;;;4.93;;
13303;SDS011;6720;51.958;4.540;2022-12-20T03:48:52;5.63;;;4.63;;
13303;SDS011;6720;51.958;4.540;2022-12-20T03:51:17;7.13;;;4.80;;
13303;SDS011;6720;51.958;4.540;2022-12-20T03:53:43;7.07;;;5.10;;
13303;SDS011;6720;51.958;4.540;2022-12-20T03:56:09;6.47;;;4.53;;
13303;SDS011;6720;51.958;4.540;2022-12-20T03:58:34;5.17;;;4.67;;
13303;SDS011;6720;51.958;4.540;2022-12-20T04:00:59;5.00;;;4.50;;
13303;SDS011;6720;51.958;4.540;2022-12-20T04:03:25;5.23;;;4.37;;
13303;SDS011;6720;51.958;4.540;2022-12-20T04:05:50;5.30;;;4.10;;
13303;SDS011;6720;51.958;4.540;2022-12-20T04:08:15;7.17;;;4.83;;
13303;SDS011;6720;51.958;4.540;2022-12-20T04:10:41;6.57;;;4.77;;
13303;SDS011;6720;51.958;4.540;2022-12-20T04:13:24;5.33;;;4.60;;
13303;SDS011;6720;51.958;4.540;2022-12-20T04:15:50;5.13;;;4.07;;
13303;SDS011;6720;51.958;4.540;2022-12-20T04:18:15;5.73;;;4.37;;
13303;SDS011;6720;51.958;4.540;2022-12-20T04:20:41;7.43;;;5.50;;
13303;SDS011;6720;51.958;4.540;2022-12-20T04:23:06;7.97;;;5.33;;
13303;SDS011;6720;51.958;4.540;2022-12-20T04:25:32;5.87;;;5.00;;
13303;SDS011;6720;51.958;4.540;2022-12-20T04:27:57;8.07;;;5.33;;
13303;SDS011;6720;51.958;4.540;2022-12-20T04:30:22;9.13;;;5.47;;
13303;SDS011;6720;51.958;4.540;2022-12-20T04:32:48;7.40;;;4.53;;
13303;SDS011;6720;51.958;4.540;2022-12-20T04:35:13;6.30;;;4.77;;
13303;SDS011;6720;51.958;4.540;2022-12-20T04:37:38;6.73;;;4.63;;
13303;SDS011;6720;51.958;4.540;2022-12-20T04:40:04;6.80;;;4.83;;
13303;SDS011;6720;51.958;4.540;2022-12-20T04:42:31;8.67;;;5.50;;
13303;SDS011;6720;51.958;4.540;2022-12-20T04:44:57;7.63;;;4.77;;
13303;SDS011;6720;51.958;4.540;2022-12-20T04:47:22;7.67;;;5.30;;
13303;SDS011;6720;51.958;4.540;2022-12-20T04:49:47;6.17;;;4.90;;
13303;SDS011;6720;51.958;4.540;2022-12-20T04:52:13;6.47;;;5.07;;
13303;SDS011;6720;51.958;4.540;2022-12-20T04:55:07;6.07;;;5.03;;
13303;SDS011;6720;51.958;4.540;2022-12-20T04:57:33;5.90;;;5.17;;
13303;SDS011;6720;51.958;4.540;2022-12-20T04:59:58;6.10;;;4.70;;
13303;SDS011;6720;51.958;4.540;2022-12-20T05:02:24;8.37;;;5.33;;
13303;SDS011;6720;51.958;4.540;2022-12-20T05:04:49;5.60;;;4.93;;
13303;SDS011;6720;51.958;4.540;2022-12-20T05:07:14;7.90;;;5.50;;
13303;SDS011;6720;51.958;4.540;2022-12-20T05:09:40;6.90;;;4.90;;
13303;SDS011;6720;51.958;4.540;2022-12-20T05:12:05;6.53;;;5.13;;
13303;SDS011;6720;51.958;4.540;2022-12-20T05:14:31;6.80;;;5.73;;
13303;SDS011;6720;51.958;4.540;2022-12-20T05:16:56;8.00;;;5.60;;
13303;SDS011;6720;51.958;4.540;2022-12-20T05:19:21;7.03;;;5.63;;
13303;SDS011;6720;51.958;4.540;2022-12-20T05:21:47;8.03;;;6.03;;
13303;SDS011;6720;51.958;4.540;2022-12-20T05:24:42;7.60;;;5.47;;
13303;SDS011;6720;51.958;4.540;2022-12-20T05:27:26;8.87;;;5.80;;
13303;SDS011;6720;51.958;4.540;2022-12-20T05:29:51;6.63;;;5.50;;
13303;SDS011;6720;51.958;4.540;2022-12-20T05:32:17;6.93;;;5.00;;
13303;SDS011;6720;51.958;4.540;2022-12-20T05:34:42;7.13;;;5.50;;
13303;SDS011;6720;51.958;4.540;2022-12-20T05:37:07;5.97;;;4.97;;
13303;SDS011;6720;51.958;4.540;2022-12-20T05:39:33;6.43;;;5.50;;
13303;SDS011;6720;51.958;4.540;2022-12-20T05:41:58;6.73;;;4.77;;
13303;SDS011;6720;51.958;4.540;2022-12-20T05:44:23;6.53;;;5.03;;
13303;SDS011;6720;51.958;4.540;2022-12-20T05:46:49;6.17;;;5.20;;
13303;SDS011;6720;51.958;4.540;2022-12-20T05:49:14;6.00;;;4.80;;
13303;SDS011;6720;51.958;4.540;2022-12-20T05:51:40;5.70;;;5.20;;
13303;SDS011;6720;51.958;4.540;2022-12-20T05:54:05;6.33;;;4.90;;
13303;SDS011;6720;51.958;4.540;2022-12-20T05:56:31;8.67;;;5.20;;
13303;SDS011;6720;51.958;4.540;2022-12-20T05:58:56;6.17;;;5.10;;
13303;SDS011;6720;51.958;4.540;2022-12-20T06:01:23;7.40;;;5.33;;
13303;SDS011;6720;51.958;4.540;2022-12-20T06:03:48;6.97;;;5.63;;
13303;SDS011;6720;51.958;4.540;2022-12-20T06:06:15;6.10;;;4.90;;
13303;SDS011;6720;51.958;4.540;2022-12-20T06:08:40;5.20;;;4.70;;
13303;SDS011;6720;51.958;4.540;2022-12-20T06:11:06;6.27;;;5.03;;
13303;SDS011;6720;51.958;4.540;2022-12-20T06:13:31;5.43;;;4.83;;
13303;SDS011;6720;51.958;4.540;2022-12-20T06:15:57;5.93;;;5.07;;
13303;SDS011;6720;51.958;4.540;2022-12-20T06:18:24;6.70;;;4.67;;
13303;SDS011;6720;51.958;4.540;2022-12-20T06:20:51;9.27;;;4.93;;
13303;SDS011;6720;51.958;4.540;2022-12-20T06:23:17;6.20;;;4.80;;
13303;SDS011;6720;51.958;4.540;2022-12-20T06:25:44;6.47;;;4.90;;
13303;SDS011;6720;51.958;4.540;2022-12-20T06:28:10;5.93;;;4.77;;
13303;SDS011;6720;51.958;4.540;2022-12-20T06:30:36;6.33;;;4.37;;
13303;SDS011;6720;51.958;4.540;2022-12-20T06:33:02;5.70;;;4.93;;
13303;SDS011;6720;51.958;4.540;2022-12-20T06:35:28;4.57;;;4.07;;
13303;SDS011;6720;51.958;4.540;2022-12-20T06:37:54;6.53;;;4.60;;
13303;SDS011;6720;51.958;4.540;2022-12-20T06:40:20;5.87;;;4.83;;
13303;SDS011;6720;51.958;4.540;2022-12-20T06:42:46;6.03;;;4.70;;
13303;SDS011;6720;51.958;4.540;2022-12-20T06:45:11;5.77;;;4.73;;
13303;SDS011;6720;51.958;4.540;2022-12-20T06:47:36;6.83;;;4.50;;
13303;SDS011;6720;51.958;4.540;2022-12-20T06:50:03;6.07;;;4.30;;
13303;SDS011;6720;51.958;4.540;2022-12-20T06:52:30;4.90;;;4.40;;
13303;SDS011;6720;51.958;4.540;2022-12-20T06:54:55;6.33;;;4.53;;
13303;SDS011;6720;51.958;4.540;2022-12-20T06:57:21;6.17;;;4.40;;
13303;SDS011;6720;51.958;4.540;2022-12-20T06:59:46;6.10;;;3.73;;
13303;SDS011;6720;51.958;4.540;2022-12-20T07:02:12;6.47;;;3.90;;
13303;SDS011;6720;51.958;4.540;2022-12-20T07:04:37;6.07;;;3.83;;
13303;SDS011;6720;51.958;4.540;2022-12-20T07:07:10;4.60;;;4.20;;
13303;SDS011;6720;51.958;4.540;2022-12-20T07:10:02;5.27;;;4.17;;
13303;SDS011;6720;51.958;4.540;2022-12-20T07:12:51;6.07;;;4.43;;
13303;SDS011;6720;51.958;4.540;2022-12-20T07:15:17;5.03;;;4.33;;
13303;SDS011;6720;51.958;4.540;2022-12-20T07:17:42;4.90;;;4.10;;
13303;SDS011;6720;51.958;4.540;2022-12-20T07:20:08;5.53;;;3.80;;
13303;SDS011;6720;51.958;4.540;2022-12-20T07:22:34;4.70;;;4.10;;
13303;SDS011;6720;51.958;4.540;2022-12-20T07:24:59;6.17;;;4.17;;
13303;SDS011;6720;51.958;4.540;2022-12-20T07:27:25;5.40;;;4.40;;
13303;SDS011;6720;51.958;4.540;2022-12-20T07:29:51;6.13;;;4.50;;
13303;SDS011;6720;51.958;4.540;2022-12-20T07:32:16;4.30;;;3.90;;
13303;SDS011;6720;51.958;4.540;2022-12-20T07:34:41;7.27;;;4.20;;
13303;SDS011;6720;51.958;4.540;2022-12-20T07:37:07;7.40;;;4.07;;
13303;SDS011;6720;51.958;4.540;2022-12-20T07:39:32;6.10;;;4.00;;
13303;SDS011;6720;51.958;4.540;2022-12-20T07:41:58;7.50;;;4.30;;
13303;SDS011;6720;51.958;4.540;2022-12-20T07:44:24;4.87;;;3.93;;
13303;SDS011;6720;51.958;4.540;2022-12-20T07:46:49;7.37;;;4.30;;
13303;SDS011;6720;51.958;4.540;2022-12-20T07:49:15;4.60;;;3.93;;
13303;SDS011;6720;51.958;4.540;2022-12-20T07:51:41;5.20;;;4.70;;
13303;SDS011;6720;51.958;4.540;2022-12-20T07:54:14;6.27;;;4.47;;
13303;SDS011;6720;51.958;4.540;2022-12-20T07:56:46;6.17;;;4.17;;
13303;SDS011;6720;51.958;4.540;2022-12-20T07:59:15;7.77;;;4.77;;
13303;SDS011;6720;51.958;4.540;2022-12-20T08:01:45;5.97;;;4.30;;
13303;SDS011;6720;51.958;4.540;2022-12-20T08:04:15;6.47;;;4.73;;
13303;SDS011;6720;51.958;4.540;2022-12-20T08:06:44;7.33;;;4.57;;
13303;SDS011;6720;51.958;4.540;2022-12-20T08:09:10;6.60;;;4.63;;
13303;SDS011;6720;51.958;4.540;2022-12-20T08:11:37;5.23;;;4.40;;
13303;SDS011;6720;51.958;4.540;2022-12-20T08:14:05;5.33;;;4.20;;
13303;SDS011;6720;51.958;4.540;2022-12-20T08:16:32;6.83;;;4.40;;
13303;SDS011;6720;51.958;4.540;2022-12-20T08:18:58;4.97;;;4.47;;
13303;SDS011;6720;51.958;4.540;2022-12-20T08:21:23;7.30;;;4.43;;
13303;SDS011;6720;51.958;4.540;2022-12-20T08:23:49;5.60;;;4.50;;
13303;SDS011;6720;51.958;4.540;2022-12-20T08:26:16;6.17;;;4.53;;
13303;SDS011;6720;51.958;4.540;2022-12-20T08:28:41;6.77;;;4.13;;
13303;SDS011;6720;51.958;4.540;2022-12-20T08:31:08;11.10;;;4.63;;
13303;SDS011;6720;51.958;4.540;2022-12-20T08:33:35;7.60;;;4.17;;
13303;SDS011;6720;51.958;4.540;2022-12-20T08:36:02;5.57;;;4.03;;
13303;SDS011;6720;51.958;4.540;2022-12-20T08:38:30;6.73;;;4.13;;
13303;SDS011;6720;51.958;4.540;2022-12-20T08:41:03;6.33;;;4.00;;
13303;SDS011;6720;51.958;4.540;2022-12-20T08:43:29;6.33;;;4.53;;
13303;SDS011;6720;51.958;4.540;2022-12-20T08:45:56;6.83;;;4.17;;
13303;SDS011;6720;51.958;4.540;2022-12-20T08:48:21;6.63;;;4.60;;
13303;SDS011;6720;51.958;4.540;2022-12-20T08:50:52;5.17;;;4.03;;
13303;SDS011;6720;51.958;4.540;2022-12-20T08:53:19;4.60;;;4.13;;
13303;SDS011;6720;51.958;4.540;2022-12-20T08:55:45;6.80;;;4.63;;
13303;SDS011;6720;51.958;4.540;2022-12-20T08:58:10;4.40;;;3.97;;
13303;SDS011;6720;51.958;4.540;2022-12-20T09:00:36;5.70;;;4.50;;
13303;SDS011;6720;51.958;4.540;2022-12-20T09:03:01;6.47;;;4.20;;
13303;SDS011;6720;51.958;4.540;2022-12-20T09:05:27;7.80;;;4.20;;
13303;SDS011;6720;51.958;4.540;2022-12-20T09:07:53;7.80;;;4.33;;
13303;SDS011;6720;51.958;4.540;2022-12-20T09:10:18;6.80;;;4.53;;
13303;SDS011;6720;51.958;4.540;2022-12-20T09:12:44;8.67;;;4.37;;
13303;SDS011;6720;51.958;4.540;2022-12-20T09:15:09;9.07;;;4.10;;
13303;SDS011;6720;51.958;4.540;2022-12-20T09:17:35;4.87;;;3.90;;
13303;SDS011;6720;51.958;4.540;2022-12-20T09:20:01;7.20;;;4.20;;
13303;SDS011;6720;51.958;4.540;2022-12-20T09:22:28;6.37;;;4.40;;
13303;SDS011;6720;51.958;4.540;2022-12-20T09:24:53;6.37;;;4.70;;
13303;SDS011;6720;51.958;4.540;2022-12-20T09:27:19;7.83;;;5.00;;
13303;SDS011;6720;51.958;4.540;2022-12-20T09:29:44;6.63;;;4.50;;
13303;SDS011;6720;51.958;4.540;2022-12-20T09:32:11;7.53;;;5.07;;
13303;SDS011;6720;51.958;4.540;2022-12-20T09:34:37;7.67;;;4.63;;
13303;SDS011;6720;51.958;4.540;2022-12-20T09:37:03;8.37;;;5.00;;
13303;SDS011;6720;51.958;4.540;2022-12-20T09:39:29;8.90;;;4.87;;
13303;SDS011;6720;51.958;4.540;2022-12-20T09:41:54;7.83;;;5.40;;
13303;SDS011;6720;51.958;4.540;2022-12-20T09:44:26;8.33;;;4.67;;
13303;SDS011;6720;51.958;4.540;2022-12-20T09:46:56;11.20;;;5.17;;
13303;SDS011;6720;51.958;4.540;2022-12-20T09:49:26;6.37;;;5.77;;
13303;SDS011;6720;51.958;4.540;2022-12-20T09:52:14;9.13;;;5.37;;
13303;SDS011;6720;51.958;4.540;2022-12-20T09:57:41;8.13;;;5.47;;
13303;SDS011;6720;51.958;4.540;2022-12-20T10:00:14;8.80;;;5.50;;
13303;SDS011;6720;51.958;4.540;2022-12-20T10:02:41;8.83;;;4.63;;
13303;SDS011;6720;51.958;4.540;2022-12-20T10:05:14;8.50;;;4.67;;
13303;SDS011;6720;51.958;4.540;2022-12-20T10:10:25;8.67;;;4.87;;
13303;SDS011;6720;51.958;4.540;2022-12-20T10:16:18;8.57;;;5.10;;
13303;SDS011;6720;51.958;4.540;2022-12-20T10:19:24;6.47;;;4.80;;
13303;SDS011;6720;51.958;4.540;2022-12-20T10:22:04;6.70;;;4.73;;
13303;SDS011;6720;51.958;4.540;2022-12-20T10:24:37;8.07;;;4.77;;
13303;SDS011;6720;51.958;4.540;2022-12-20T10:27:13;7.97;;;5.10;;
13303;SDS011;6720;51.958;4.540;2022-12-20T10:29:40;8.20;;;4.83;;
13303;SDS011;6720;51.958;4.540;2022-12-20T10:32:09;6.10;;;4.83;;
13303;SDS011;6720;51.958;4.540;2022-12-20T10:34:37;9.07;;;4.70;;
13303;SDS011;6720;51.958;4.540;2022-12-20T10:37:13;6.87;;;4.77;;
13303;SDS011;6720;51.958;4.540;2022-12-20T10:39:43;7.07;;;4.50;;
13303;SDS011;6720;51.958;4.540;2022-12-20T10:42:24;6.80;;;5.47;;
13303;SDS011;6720;51.958;4.540;2022-12-20T10:44:54;8.67;;;4.93;;
13303;SDS011;6720;51.958;4.540;2022-12-20T10:47:23;9.13;;;5.17;;
13303;SDS011;6720;51.958;4.540;2022-12-20T10:50:12;7.43;;;5.23;;
13303;SDS011;6720;51.958;4.540;2022-12-20T10:52:41;7.60;;;5.53;;
13303;SDS011;6720;51.958;4.540;2022-12-20T11:00:39;6.97;;;4.67;;
13303;SDS011;6720;51.958;4.540;2022-12-20T11:03:16;11.40;;;5.30;;
13303;SDS011;6720;51.958;4.540;2022-12-20T11:05:52;6.07;;;5.20;;
13303;SDS011;6720;51.958;4.540;2022-12-20T11:08:23;8.70;;;5.67;;
13303;SDS011;6720;51.958;4.540;2022-12-20T11:11:08;7.60;;;4.87;;
13303;SDS011;6720;51.958;4.540;2022-12-20T11:13:36;9.87;;;5.87;;
13303;SDS011;6720;51.958;4.540;2022-12-20T11:16:02;10.37;;;6.40;;
13303;SDS011;6720;51.958;4.540;2022-12-20T11:18:39;8.03;;;5.40;;
13303;SDS011;6720;51.958;4.540;2022-12-20T11:21:24;8.17;;;5.83;;
13303;SDS011;6720;51.958;4.540;2022-12-20T11:24:22;6.90;;;6.00;;
13303;SDS011;6720;51.958;4.540;2022-12-20T11:27:00;6.10;;;5.50;;
13303;SDS011;6720;51.958;4.540;2022-12-20T11:37:39;7.60;;;5.67;;
13303;SDS011;6720;51.958;4.540;2022-12-20T11:40:31;10.20;;;6.10;;
13303;SDS011;6720;51.958;4.540;2022-12-20T11:43:11;6.97;;;5.87;;
13303;SDS011;6720;51.958;4.540;2022-12-20T11:48:49;8.30;;;5.93;;
13303;SDS011;6720;51.958;4.540;2022-12-20T11:51:21;8.43;;;6.07;;
13303;SDS011;6720;51.958;4.540;2022-12-20T11:53:53;7.97;;;5.77;;
13303;SDS011;6720;51.958;4.540;2022-12-20T12:01:39;7.80;;;5.77;;
13303;SDS011;6720;51.958;4.540;2022-12-20T12:09:35;8.77;;;6.50;;
13303;SDS011;6720;51.958;4.540;2022-12-20T12:12:09;9.40;;;6.77;;
13303;SDS011;6720;51.958;4.540;2022-12-20T12:14:59;8.23;;;6.50;;
13303;SDS011;6720;51.958;4.540;2022-12-20T12:25:54;8.17;;;6.67;;
13303;SDS011;6720;51.958;4.540;2022-12-20T12:28:19;7.13;;;6.43;;
13303;SDS011;6720;51.958;4.540;2022-12-20T12:30:54;8.37;;;6.87;;
13303;SDS011;6720;51.958;4.540;2022-12-20T12:33:26;10.60;;;7.00;;
13303;SDS011;6720;51.958;4.540;2022-12-20T12:36:10;8.70;;;6.93;;
13303;SDS011;6720;51.958;4.540;2022-12-20T12:38:57;9.23;;;7.30;;
13303;SDS011;6720;51.958;4.540;2022-12-20T12:46:43;9.83;;;7.47;;
13303;SDS011;6720;51.958;4.540;2022-12-20T12:51:49;8.17;;;6.93;;
13303;SDS011;6720;51.958;4.540;2022-12-20T12:54:18;8.90;;;8.00;;
13303;SDS011;6720;51.958;4.540;2022-12-20T12:56:47;9.97;;;7.43;;
13303;SDS011;6720;51.958;4.540;2022-12-20T12:59:22;9.50;;;7.70;;
13303;SDS011;6720;51.958;4.540;2022-12-20T13:19:53;10.57;;;8.60;;
13303;SDS011;6720;51.958;4.540;2022-12-20T13:22:22;8.20;;;7.37;;
13303;SDS011;6720;51.958;4.540;2022-12-20T13:27:45;8.43;;;7.47;;
13303;SDS011;6720;51.958;4.540;2022-12-20T13:35:27;9.57;;;7.93;;
13303;SDS011;6720;51.958;4.540;2022-12-20T13:37:58;10.10;;;8.47;;
13303;SDS011;6720;51.958;4.540;2022-12-20T13:40:39;8.97;;;8.07;;
13303;SDS011;6720;51.958;4.540;2022-12-20T13:45:50;11.47;;;9.47;;
13303;SDS011;6720;51.958;4.540;2022-12-20T13:48:21;10.97;;;9.97;;
13303;SDS011;6720;51.958;4.540;2022-12-20T13:50:55;11.70;;;9.93;;
13303;SDS011;6720;51.958;4.540;2022-12-20T13:53:25;9.50;;;8.60;;
13303;SDS011;6720;51.958;4.540;2022-12-20T13:55:51;11.47;;;10.10;;
13303;SDS011;6720;51.958;4.540;2022-12-20T13:58:20;9.97;;;9.00;;
13303;SDS011;6720;51.958;4.540;2022-12-20T14:00:50;12.83;;;10.47;;
13303;SDS011;6720;51.958;4.540;2022-12-20T14:05:52;11.50;;;10.33;;
13303;SDS011;6720;51.958;4.540;2022-12-20T14:08:32;10.60;;;9.60;;
13303;SDS011;6720;51.958;4.540;2022-12-20T14:13:35;12.00;;;9.30;;
13303;SDS011;6720;51.958;4.540;2022-12-20T14:16:12;10.47;;;9.37;;
13303;SDS011;6720;51.958;4.540;2022-12-20T14:18:40;10.67;;;9.27;;
13303;SDS011;6720;51.958;4.540;2022-12-20T14:21:05;12.07;;;9.83;;
13303;SDS011;6720;51.958;4.540;2022-12-20T14:23:39;12.53;;;10.07;;
13303;SDS011;6720;51.958;4.540;2022-12-20T14:26:50;12.40;;;10.53;;
13303;SDS011;6720;51.958;4.540;2022-12-20T14:29:08;11.27;;;10.07;;
13303;SDS011;6720;51.958;4.540;2022-12-20T14:34:04;12.50;;;10.43;;
13303;SDS011;6720;51.958;4.540;2022-12-20T14:36:30;12.40;;;10.77;;
13303;SDS011;6720;51.958;4.540;2022-12-20T14:38:59;11.80;;;10.53;;
13303;SDS011;6720;51.958;4.540;2022-12-20T14:41:28;14.03;;;11.20;;
13303;SDS011;6720;51.958;4.540;2022-12-20T14:43:58;12.10;;;10.90;;
13303;SDS011;6720;51.958;4.540;2022-12-20T14:46:28;11.83;;;10.63;;
13303;SDS011;6720;51.958;4.540;2022-12-20T14:51:43;12.13;;;10.93;;
13303;SDS011;6720;51.958;4.540;2022-12-20T14:54:28;12.93;;;11.63;;
13303;SDS011;6720;51.958;4.540;2022-12-20T14:57:00;16.30;;;12.30;;
13303;SDS011;6720;51.958;4.540;2022-12-20T14:59:26;14.17;;;11.67;;
13303;SDS011;6720;51.958;4.540;2022-12-20T15:01:53;13.97;;;12.13;;
13303;SDS011;6720;51.958;4.540;2022-12-20T15:04:29;13.53;;;12.17;;
13303;SDS011;6720;51.958;4.540;2022-12-20T15:06:58;13.20;;;11.80;;
13303;SDS011;6720;51.958;4.540;2022-12-20T15:09:24;13.60;;;12.20;;
13303;SDS011;6720;51.958;4.540;2022-12-20T15:11:55;13.10;;;11.37;;
13303;SDS011;6720;51.958;4.540;2022-12-20T15:14:27;12.70;;;11.33;;
13303;SDS011;6720;51.958;4.540;2022-12-20T15:17:11;14.03;;;12.30;;
13303;SDS011;6720;51.958;4.540;2022-12-20T15:19:38;13.70;;;12.40;;
13303;SDS011;6720;51.958;4.540;2022-12-20T15:22:14;13.90;;;12.40;;
13303;SDS011;6720;51.958;4.540;2022-12-20T15:24:42;13.17;;;11.73;;
13303;SDS011;6720;51.958;4.540;2022-12-20T15:27:13;13.40;;;12.10;;
13303;SDS011;6720;51.958;4.540;2022-12-20T15:29:39;12.93;;;11.73;;
13303;SDS011;6720;51.958;4.540;2022-12-20T15:32:06;13.27;;;11.97;;
13303;SDS011;6720;51.958;4.540;2022-12-20T15:34:39;13.57;;;12.17;;
13303;SDS011;6720;51.958;4.540;2022-12-20T15:37:05;14.63;;;12.80;;
13303;SDS011;6720;51.958;4.540;2022-12-20T15:39:31;14.40;;;13.00;;
13303;SDS011;6720;51.958;4.540;2022-12-20T15:41:59;15.73;;;12.17;;
13303;SDS011;6720;51.958;4.540;2022-12-20T15:44:26;13.90;;;12.57;;
13303;SDS011;6720;51.958;4.540;2022-12-20T15:46:55;14.27;;;12.73;;
13303;SDS011;6720;51.958;4.540;2022-12-20T15:49:21;14.37;;;12.93;;
13303;SDS011;6720;51.958;4.540;2022-12-20T15:51:53;14.50;;;13.00;;
13303;SDS011;6720;51.958;4.540;2022-12-20T15:54:22;14.80;;;13.30;;
13303;SDS011;6720;51.958;4.540;2022-12-20T15:56:51;15.67;;;13.63;;
13303;SDS011;6720;51.958;4.540;2022-12-20T15:59:17;15.60;;;14.10;;
13303;SDS011;6720;51.958;4.540;2022-12-20T16:01:45;14.73;;;13.30;;
13303;SDS011;6720;51.958;4.540;2022-12-20T16:04:14;14.73;;;13.20;;
13303;SDS011;6720;51.958;4.540;2022-12-20T16:06:42;15.33;;;13.73;;
13303;SDS011;6720;51.958;4.540;2022-12-20T16:09:08;16.23;;;13.33;;
13303;SDS011;6720;51.958;4.540;2022-12-20T16:11:34;14.83;;;13.40;;
13303;SDS011;6720;51.958;4.540;2022-12-20T16:14:00;14.10;;;12.70;;
13303;SDS011;6720;51.958;4.540;2022-12-20T16:16:27;15.57;;;14.00;;
13303;SDS011;6720;51.958;4.540;2022-12-20T16:18:54;16.50;;;13.57;;
13303;SDS011;6720;51.958;4.540;2022-12-20T16:21:20;19.13;;;14.53;;
13303;SDS011;6720;51.958;4.540;2022-12-20T16:23:48;15.70;;;13.80;;
13303;SDS011;6720;51.958;4.540;2022-12-20T16:26:15;15.60;;;13.70;;
13303;SDS011;6720;51.958;4.540;2022-12-20T16:28:43;18.30;;;15.40;;
13303;SDS011;6720;51.958;4.540;2022-12-20T16:31:11;16.33;;;14.53;;
13303;SDS011;6720;51.958;4.540;2022-12-20T16:33:52;16.50;;;14.80;;
13303;SDS011;6720;51.958;4.540;2022-12-20T16:36:19;15.87;;;14.17;;
13303;SDS011;6720;51.958;4.540;2022-12-20T16:38:45;15.87;;;14.27;;
13303;SDS011;6720;51.958;4.540;2022-12-20T16:41:14;17.47;;;15.57;;
13303;SDS011;6720;51.958;4.540;2022-12-20T16:43:48;16.80;;;15.10;;
13303;SDS011;6720;51.958;4.540;2022-12-20T16:46:15;17.77;;;15.33;;
13303;SDS011;6720;51.958;4.540;2022-12-20T16:48:43;17.23;;;15.47;;
13303;SDS011;6720;51.958;4.540;2022-12-20T16:51:24;17.07;;;14.93;;
13303;SDS011;6720;51.958;4.540;2022-12-20T16:53:55;18.67;;;15.07;;
13303;SDS011;6720;51.958;4.540;2022-12-20T16:56:22;16.80;;;14.43;;